Main page
METAR-TAF:

METAR-TAF

Airports :

Guaraní International Airport

Ciudad Del Este, Paraguay

latitude: 25-27-20S, longitude: 054-50-37W, elevation: 257 m

Current weather observation

The report was made 17 minutes ago, at 12:00 UTC
Wind 3 kt from the South
Temperature 12°C
Humidity 94%
Pressure 1022 hPa
Visibility 10 km or more
no clouds below 1500 m and no cumulonimbus

METAR: SGES 121200Z 18003KT CAVOK 12/11 Q1022

Time: 08:17 (12:17 UTC)

Forecast

The report was made 1 hour and 55 minutes ago, at 10:22 UTC
Forecast valid from 12 at 12 UTC to 13 at 12 UTC
Wind kt from the North
Visibility: 6000 m
Becoming
from 12 at 13 UTC to 12 at 16 UTC
Wind 7 kt from the South/Southeast
Visibility 10 km or more
no clouds below 1500 m and no cumulonimbus
Temporary
from 13 at 08 UTC to 13 at 10 UTC
Wind kt from the North
Visibility: 4000 m
mist

TAF: SGES 121022Z 1212/1312 00000KT 6000 NSC TX22/1219Z TN09/1310Z BECMG 1213/1216 15007KT CAVOK TEMPO 1308/1310 00000KT 4000 BR NSC

Weather observations and forecasts of more than 4000 airports (METAR and TAF reports).

The available stations are represented by yellow and red dots on the map.

Hover mouse over dot to see the name of the station.

Then click to see weather observations and forecasts.

To change the map : click on the green buttons with a black cross to zoom in, on the green button with a dash to zoom out, or on the green arrows for adjacent maps.


METAR-TAF: